Terminal Aerodrome Forecast
Issued by NWS Sterling, VA

Home | Current Version | Previous Version | Text Only | Print | Product List | Glossary On
Versions: 1 2 3 4 5 6 7 8 9 10 11 12 13 14 15 16 17 18 19 20 21
000
FTUS41 KLWX 191100
TAFIAD
TAF
KIAD 191120Z 1912/2018 03005KT P6SM SCT050 BKN100
     FM191700 09005KT P6SM SCT050
     FM192200 12006KT P6SM BKN050
     FM200300 13005KT P6SM BKN025
     FM200900 00000KT 5SM BR SCT008 BKN015
     FM201400 16004KT P6SM SCT020=

USA.gov is the U.S. government's official web portal to all federal, state and local government web resources and services.